sensor_id;sensor_type;location;lat;lon;timestamp;P1;durP1;ratioP1;P2;durP2;ratioP2
21505;SDS011;10914;48.886;9.394;2023-11-19T00:00:07;34.88;;;33.08;;
21505;SDS011;10914;48.886;9.394;2023-11-19T00:02:39;38.60;;;36.55;;
21505;SDS011;10914;48.886;9.394;2023-11-19T00:05:04;30.25;;;28.23;;
21505;SDS011;10914;48.886;9.394;2023-11-19T00:07:34;29.65;;;28.08;;
21505;SDS011;10914;48.886;9.394;2023-11-19T00:09:59;32.25;;;30.48;;
21505;SDS011;10914;48.886;9.394;2023-11-19T00:12:34;39.15;;;36.88;;
21505;SDS011;10914;48.886;9.394;2023-11-19T00:14:59;31.10;;;29.45;;
21505;SDS011;10914;48.886;9.394;2023-11-19T00:17:25;31.02;;;29.35;;
21505;SDS011;10914;48.886;9.394;2023-11-19T00:19:50;44.17;;;41.75;;
21505;SDS011;10914;48.886;9.394;2023-11-19T00:22:16;35.67;;;33.65;;
21505;SDS011;10914;48.886;9.394;2023-11-19T00:24:41;32.38;;;30.77;;
21505;SDS011;10914;48.886;9.394;2023-11-19T00:27:07;38.33;;;36.25;;
21505;SDS011;10914;48.886;9.394;2023-11-19T00:29:32;39.85;;;37.47;;
21505;SDS011;10914;48.886;9.394;2023-11-19T00:31:58;57.55;;;54.50;;
21505;SDS011;10914;48.886;9.394;2023-11-19T00:34:23;46.78;;;44.20;;
21505;SDS011;10914;48.886;9.394;2023-11-19T00:36:48;61.40;;;58.20;;
21505;SDS011;10914;48.886;9.394;2023-11-19T00:39:14;101.18;;;95.88;;
21505;SDS011;10914;48.886;9.394;2023-11-19T00:41:40;81.60;;;77.53;;
21505;SDS011;10914;48.886;9.394;2023-11-19T00:44:05;78.40;;;74.30;;
21505;SDS011;10914;48.886;9.394;2023-11-19T00:46:30;55.83;;;52.95;;
21505;SDS011;10914;48.886;9.394;2023-11-19T00:48:57;63.35;;;60.08;;
21505;SDS011;10914;48.886;9.394;2023-11-19T00:51:24;103.35;;;98.50;;
21505;SDS011;10914;48.886;9.394;2023-11-19T00:53:49;110.13;;;104.63;;
21505;SDS011;10914;48.886;9.394;2023-11-19T00:56:15;131.13;;;124.67;;
21505;SDS011;10914;48.886;9.394;2023-11-19T00:58:42;94.75;;;89.90;;
21505;SDS011;10914;48.886;9.394;2023-11-19T01:01:07;147.65;;;140.60;;
21505;SDS011;10914;48.886;9.394;2023-11-19T01:03:33;68.72;;;65.30;;
21505;SDS011;10914;48.886;9.394;2023-11-19T01:05:58;49.13;;;46.28;;
21505;SDS011;10914;48.886;9.394;2023-11-19T01:08:24;43.72;;;41.45;;
21505;SDS011;10914;48.886;9.394;2023-11-19T01:10:50;68.68;;;64.93;;
21505;SDS011;10914;48.886;9.394;2023-11-19T01:13:15;65.43;;;62.17;;
21505;SDS011;10914;48.886;9.394;2023-11-19T01:15:40;38.58;;;36.50;;
21505;SDS011;10914;48.886;9.394;2023-11-19T01:18:06;37.72;;;35.60;;
21505;SDS011;10914;48.886;9.394;2023-11-19T01:20:34;36.47;;;34.38;;
21505;SDS011;10914;48.886;9.394;2023-11-19T01:22:59;111.95;;;106.38;;
21505;SDS011;10914;48.886;9.394;2023-11-19T01:25:25;68.50;;;65.03;;
21505;SDS011;10914;48.886;9.394;2023-11-19T01:27:50;72.95;;;69.45;;
21505;SDS011;10914;48.886;9.394;2023-11-19T01:30:15;57.80;;;54.97;;
21505;SDS011;10914;48.886;9.394;2023-11-19T01:32:40;51.22;;;48.72;;
21505;SDS011;10914;48.886;9.394;2023-11-19T01:35:06;41.03;;;38.92;;
21505;SDS011;10914;48.886;9.394;2023-11-19T01:37:33;108.80;;;103.50;;
21505;SDS011;10914;48.886;9.394;2023-11-19T01:39:59;38.40;;;36.50;;
21505;SDS011;10914;48.886;9.394;2023-11-19T01:42:25;41.85;;;39.58;;
21505;SDS011;10914;48.886;9.394;2023-11-19T01:44:59;30.20;;;28.70;;
21505;SDS011;10914;48.886;9.394;2023-11-19T01:47:26;29.05;;;27.63;;
21505;SDS011;10914;48.886;9.394;2023-11-19T01:49:51;35.58;;;33.78;;
21505;SDS011;10914;48.886;9.394;2023-11-19T01:52:17;60.63;;;57.63;;
21505;SDS011;10914;48.886;9.394;2023-11-19T01:54:42;47.85;;;45.45;;
21505;SDS011;10914;48.886;9.394;2023-11-19T01:57:07;31.00;;;29.07;;
21505;SDS011;10914;48.886;9.394;2023-11-19T01:59:34;29.90;;;28.25;;
21505;SDS011;10914;48.886;9.394;2023-11-19T02:01:59;30.42;;;28.83;;
21505;SDS011;10914;48.886;9.394;2023-11-19T02:04:25;27.67;;;26.27;;
21505;SDS011;10914;48.886;9.394;2023-11-19T02:06:51;35.22;;;33.33;;
21505;SDS011;10914;48.886;9.394;2023-11-19T02:09:18;37.53;;;35.72;;
21505;SDS011;10914;48.886;9.394;2023-11-19T02:11:44;33.28;;;31.38;;
21505;SDS011;10914;48.886;9.394;2023-11-19T02:14:10;28.35;;;26.92;;
21505;SDS011;10914;48.886;9.394;2023-11-19T02:16:36;30.98;;;29.38;;
21505;SDS011;10914;48.886;9.394;2023-11-19T02:19:01;30.42;;;28.83;;
21505;SDS011;10914;48.886;9.394;2023-11-19T02:21:27;29.15;;;27.65;;
21505;SDS011;10914;48.886;9.394;2023-11-19T02:23:52;34.03;;;32.28;;
21505;SDS011;10914;48.886;9.394;2023-11-19T02:28:43;32.80;;;31.10;;
21505;SDS011;10914;48.886;9.394;2023-11-19T02:31:08;39.55;;;37.58;;
21505;SDS011;10914;48.886;9.394;2023-11-19T02:33:37;32.20;;;30.60;;
21505;SDS011;10914;48.886;9.394;2023-11-19T02:36:03;29.95;;;28.50;;
21505;SDS011;10914;48.886;9.394;2023-11-19T02:38:29;33.90;;;32.20;;
21505;SDS011;10914;48.886;9.394;2023-11-19T02:40:56;32.22;;;30.73;;
21505;SDS011;10914;48.886;9.394;2023-11-19T02:43:21;32.35;;;30.75;;
21505;SDS011;10914;48.886;9.394;2023-11-19T02:45:46;33.65;;;31.95;;
21505;SDS011;10914;48.886;9.394;2023-11-19T02:48:11;34.83;;;33.10;;
21505;SDS011;10914;48.886;9.394;2023-11-19T02:50:37;31.42;;;29.73;;
21505;SDS011;10914;48.886;9.394;2023-11-19T02:53:02;39.03;;;37.00;;
21505;SDS011;10914;48.886;9.394;2023-11-19T02:55:27;31.92;;;30.42;;
21505;SDS011;10914;48.886;9.394;2023-11-19T02:57:58;36.25;;;34.55;;
21505;SDS011;10914;48.886;9.394;2023-11-19T03:00:25;40.15;;;38.15;;
21505;SDS011;10914;48.886;9.394;2023-11-19T03:02:57;30.75;;;29.35;;
21505;SDS011;10914;48.886;9.394;2023-11-19T03:05:30;40.55;;;38.53;;
21505;SDS011;10914;48.886;9.394;2023-11-19T03:07:56;30.38;;;28.88;;
21505;SDS011;10914;48.886;9.394;2023-11-19T03:10:21;34.38;;;32.67;;
21505;SDS011;10914;48.886;9.394;2023-11-19T03:12:47;32.08;;;30.52;;
21505;SDS011;10914;48.886;9.394;2023-11-19T03:15:12;57.40;;;54.53;;
21505;SDS011;10914;48.886;9.394;2023-11-19T03:17:41;39.58;;;37.60;;
21505;SDS011;10914;48.886;9.394;2023-11-19T03:20:07;35.78;;;34.00;;
21505;SDS011;10914;48.886;9.394;2023-11-19T03:22:34;34.28;;;32.47;;
21505;SDS011;10914;48.886;9.394;2023-11-19T03:25:00;28.95;;;27.55;;
21505;SDS011;10914;48.886;9.394;2023-11-19T03:27:25;28.70;;;27.25;;
21505;SDS011;10914;48.886;9.394;2023-11-19T03:29:50;29.90;;;28.47;;
21505;SDS011;10914;48.886;9.394;2023-11-19T03:32:15;36.97;;;35.22;;
21505;SDS011;10914;48.886;9.394;2023-11-19T03:34:41;31.40;;;29.80;;
21505;SDS011;10914;48.886;9.394;2023-11-19T03:37:06;35.13;;;33.15;;
21505;SDS011;10914;48.886;9.394;2023-11-19T03:39:31;33.33;;;31.73;;
21505;SDS011;10914;48.886;9.394;2023-11-19T03:41:57;32.03;;;30.35;;
21505;SDS011;10914;48.886;9.394;2023-11-19T03:44:22;33.97;;;32.17;;
21505;SDS011;10914;48.886;9.394;2023-11-19T03:46:47;36.90;;;34.60;;
21505;SDS011;10914;48.886;9.394;2023-11-19T03:49:12;57.08;;;51.90;;
21505;SDS011;10914;48.886;9.394;2023-11-19T03:51:37;38.00;;;35.25;;
21505;SDS011;10914;48.886;9.394;2023-11-19T03:54:03;43.40;;;39.95;;
21505;SDS011;10914;48.886;9.394;2023-11-19T03:56:28;39.53;;;36.78;;
21505;SDS011;10914;48.886;9.394;2023-11-19T03:58:53;49.58;;;45.80;;
21505;SDS011;10914;48.886;9.394;2023-11-19T04:01:19;38.83;;;36.72;;
21505;SDS011;10914;48.886;9.394;2023-11-19T04:03:44;48.10;;;45.15;;
21505;SDS011;10914;48.886;9.394;2023-11-19T04:06:09;48.97;;;46.35;;
21505;SDS011;10914;48.886;9.394;2023-11-19T04:08:35;36.95;;;34.90;;
21505;SDS011;10914;48.886;9.394;2023-11-19T04:11:00;48.38;;;44.67;;
21505;SDS011;10914;48.886;9.394;2023-11-19T04:13:26;51.95;;;48.42;;
21505;SDS011;10914;48.886;9.394;2023-11-19T04:15:51;52.03;;;49.07;;
21505;SDS011;10914;48.886;9.394;2023-11-19T04:18:16;46.63;;;44.08;;
21505;SDS011;10914;48.886;9.394;2023-11-19T04:20:41;51.13;;;48.53;;
21505;SDS011;10914;48.886;9.394;2023-11-19T04:23:07;47.03;;;44.50;;
21505;SDS011;10914;48.886;9.394;2023-11-19T04:25:33;40.45;;;38.20;;
21505;SDS011;10914;48.886;9.394;2023-11-19T04:27:58;29.27;;;27.67;;
21505;SDS011;10914;48.886;9.394;2023-11-19T04:30:23;30.38;;;28.73;;
21505;SDS011;10914;48.886;9.394;2023-11-19T04:32:49;30.00;;;28.40;;
21505;SDS011;10914;48.886;9.394;2023-11-19T04:35:14;34.17;;;32.33;;
21505;SDS011;10914;48.886;9.394;2023-11-19T04:37:39;25.60;;;24.30;;
21505;SDS011;10914;48.886;9.394;2023-11-19T04:40:05;26.63;;;25.23;;
21505;SDS011;10914;48.886;9.394;2023-11-19T04:42:30;26.02;;;24.80;;
21505;SDS011;10914;48.886;9.394;2023-11-19T04:44:57;27.17;;;25.77;;
21505;SDS011;10914;48.886;9.394;2023-11-19T04:47:22;28.55;;;27.17;;
21505;SDS011;10914;48.886;9.394;2023-11-19T04:49:47;29.17;;;27.40;;
21505;SDS011;10914;48.886;9.394;2023-11-19T04:52:13;29.55;;;27.85;;
21505;SDS011;10914;48.886;9.394;2023-11-19T04:54:41;29.58;;;28.13;;
21505;SDS011;10914;48.886;9.394;2023-11-19T04:57:08;29.33;;;27.83;;
21505;SDS011;10914;48.886;9.394;2023-11-19T04:59:35;28.27;;;26.80;;
21505;SDS011;10914;48.886;9.394;2023-11-19T05:02:01;27.20;;;25.63;;
21505;SDS011;10914;48.886;9.394;2023-11-19T05:04:26;27.27;;;25.98;;
21505;SDS011;10914;48.886;9.394;2023-11-19T05:06:51;27.05;;;25.67;;
21505;SDS011;10914;48.886;9.394;2023-11-19T05:09:16;26.25;;;24.83;;
21505;SDS011;10914;48.886;9.394;2023-11-19T05:11:43;28.13;;;26.45;;
21505;SDS011;10914;48.886;9.394;2023-11-19T05:14:08;24.70;;;23.48;;
21505;SDS011;10914;48.886;9.394;2023-11-19T05:16:34;25.85;;;24.70;;
21505;SDS011;10914;48.886;9.394;2023-11-19T05:19:00;26.73;;;25.08;;
21505;SDS011;10914;48.886;9.394;2023-11-19T05:21:25;24.97;;;23.87;;
21505;SDS011;10914;48.886;9.394;2023-11-19T05:23:50;27.83;;;26.53;;
21505;SDS011;10914;48.886;9.394;2023-11-19T05:26:23;30.30;;;28.80;;
21505;SDS011;10914;48.886;9.394;2023-11-19T05:28:49;27.80;;;26.58;;
21505;SDS011;10914;48.886;9.394;2023-11-19T05:31:15;31.58;;;29.90;;
21505;SDS011;10914;48.886;9.394;2023-11-19T05:33:41;28.17;;;26.98;;
21505;SDS011;10914;48.886;9.394;2023-11-19T05:36:06;28.20;;;26.92;;
21505;SDS011;10914;48.886;9.394;2023-11-19T05:38:33;29.33;;;27.92;;
21505;SDS011;10914;48.886;9.394;2023-11-19T05:40:58;33.03;;;31.10;;
21505;SDS011;10914;48.886;9.394;2023-11-19T05:43:23;39.05;;;37.03;;
21505;SDS011;10914;48.886;9.394;2023-11-19T05:45:48;39.65;;;37.42;;
21505;SDS011;10914;48.886;9.394;2023-11-19T05:48:14;35.60;;;33.90;;
21505;SDS011;10914;48.886;9.394;2023-11-19T05:50:39;34.33;;;32.72;;
21505;SDS011;10914;48.886;9.394;2023-11-19T05:53:04;32.53;;;30.92;;
21505;SDS011;10914;48.886;9.394;2023-11-19T05:55:35;38.47;;;36.42;;
21505;SDS011;10914;48.886;9.394;2023-11-19T05:58:02;37.95;;;36.28;;
21505;SDS011;10914;48.886;9.394;2023-11-19T06:00:29;38.13;;;36.13;;
21505;SDS011;10914;48.886;9.394;2023-11-19T06:02:55;37.05;;;35.17;;
21505;SDS011;10914;48.886;9.394;2023-11-19T06:05:20;34.67;;;32.50;;
21505;SDS011;10914;48.886;9.394;2023-11-19T06:07:46;39.75;;;37.05;;
21505;SDS011;10914;48.886;9.394;2023-11-19T06:10:11;33.42;;;31.70;;
21505;SDS011;10914;48.886;9.394;2023-11-19T06:12:37;39.05;;;37.22;;
21505;SDS011;10914;48.886;9.394;2023-11-19T06:15:06;45.20;;;43.10;;
21505;SDS011;10914;48.886;9.394;2023-11-19T06:17:33;43.58;;;41.58;;
21505;SDS011;10914;48.886;9.394;2023-11-19T06:19:59;35.45;;;33.78;;
21505;SDS011;10914;48.886;9.394;2023-11-19T06:22:24;35.70;;;33.90;;
21505;SDS011;10914;48.886;9.394;2023-11-19T06:24:49;53.25;;;50.67;;
21505;SDS011;10914;48.886;9.394;2023-11-19T06:27:14;46.15;;;43.40;;
21505;SDS011;10914;48.886;9.394;2023-11-19T06:29:40;35.28;;;33.47;;
21505;SDS011;10914;48.886;9.394;2023-11-19T06:32:06;43.78;;;41.45;;
21505;SDS011;10914;48.886;9.394;2023-11-19T06:34:31;39.53;;;37.53;;
21505;SDS011;10914;48.886;9.394;2023-11-19T06:36:58;33.88;;;32.28;;
21505;SDS011;10914;48.886;9.394;2023-11-19T06:39:23;33.95;;;32.33;;
21505;SDS011;10914;48.886;9.394;2023-11-19T06:41:48;35.83;;;34.22;;
21505;SDS011;10914;48.886;9.394;2023-11-19T06:44:14;42.08;;;40.10;;
21505;SDS011;10914;48.886;9.394;2023-11-19T06:46:39;38.70;;;37.00;;
21505;SDS011;10914;48.886;9.394;2023-11-19T06:49:05;41.75;;;39.88;;
21505;SDS011;10914;48.886;9.394;2023-11-19T06:51:30;37.63;;;36.00;;
21505;SDS011;10914;48.886;9.394;2023-11-19T06:53:55;32.13;;;30.58;;
21505;SDS011;10914;48.886;9.394;2023-11-19T06:56:21;29.30;;;28.00;;
21505;SDS011;10914;48.886;9.394;2023-11-19T06:58:46;33.80;;;32.20;;
21505;SDS011;10914;48.886;9.394;2023-11-19T07:01:13;44.75;;;42.75;;
21505;SDS011;10914;48.886;9.394;2023-11-19T07:03:38;33.50;;;31.88;;
21505;SDS011;10914;48.886;9.394;2023-11-19T07:06:04;36.13;;;34.53;;
21505;SDS011;10914;48.886;9.394;2023-11-19T07:08:30;36.05;;;33.97;;
21505;SDS011;10914;48.886;9.394;2023-11-19T07:10:56;54.58;;;51.65;;
21505;SDS011;10914;48.886;9.394;2023-11-19T07:13:21;56.30;;;53.55;;
21505;SDS011;10914;48.886;9.394;2023-11-19T07:15:46;47.20;;;44.67;;
21505;SDS011;10914;48.886;9.394;2023-11-19T07:18:11;35.80;;;34.17;;
21505;SDS011;10914;48.886;9.394;2023-11-19T07:20:37;50.15;;;47.72;;
21505;SDS011;10914;48.886;9.394;2023-11-19T07:23:03;52.00;;;49.60;;
21505;SDS011;10914;48.886;9.394;2023-11-19T07:25:28;104.88;;;99.88;;
21505;SDS011;10914;48.886;9.394;2023-11-19T07:27:53;112.25;;;106.72;;
21505;SDS011;10914;48.886;9.394;2023-11-19T07:30:18;135.40;;;128.73;;
21505;SDS011;10914;48.886;9.394;2023-11-19T07:32:44;126.30;;;120.28;;
21505;SDS011;10914;48.886;9.394;2023-11-19T07:35:09;169.50;;;160.82;;
21505;SDS011;10914;48.886;9.394;2023-11-19T07:37:35;80.25;;;76.43;;
21505;SDS011;10914;48.886;9.394;2023-11-19T07:40:00;87.70;;;83.35;;
21505;SDS011;10914;48.886;9.394;2023-11-19T07:42:25;119.75;;;113.63;;
21505;SDS011;10914;48.886;9.394;2023-11-19T07:44:50;66.95;;;63.38;;
21505;SDS011;10914;48.886;9.394;2023-11-19T07:47:16;97.78;;;92.78;;
21505;SDS011;10914;48.886;9.394;2023-11-19T07:49:41;78.35;;;74.57;;
21505;SDS011;10914;48.886;9.394;2023-11-19T07:52:08;81.65;;;77.72;;
21505;SDS011;10914;48.886;9.394;2023-11-19T07:54:34;98.32;;;93.55;;
21505;SDS011;10914;48.886;9.394;2023-11-19T07:56:59;79.45;;;75.63;;
21505;SDS011;10914;48.886;9.394;2023-11-19T07:59:24;91.40;;;87.13;;
21505;SDS011;10914;48.886;9.394;2023-11-19T08:01:49;90.30;;;85.95;;
21505;SDS011;10914;48.886;9.394;2023-11-19T08:04:15;46.60;;;44.47;;
21505;SDS011;10914;48.886;9.394;2023-11-19T08:06:40;87.85;;;83.43;;
21505;SDS011;10914;48.886;9.394;2023-11-19T08:09:05;118.20;;;112.68;;
21505;SDS011;10914;48.886;9.394;2023-11-19T08:11:31;79.50;;;75.80;;
21505;SDS011;10914;48.886;9.394;2023-11-19T08:13:56;59.88;;;56.80;;
21505;SDS011;10914;48.886;9.394;2023-11-19T08:16:22;51.05;;;48.35;;
21505;SDS011;10914;48.886;9.394;2023-11-19T08:18:47;76.03;;;72.43;;
21505;SDS011;10914;48.886;9.394;2023-11-19T08:21:13;38.78;;;36.67;;
21505;SDS011;10914;48.886;9.394;2023-11-19T08:23:38;39.85;;;37.85;;
21505;SDS011;10914;48.886;9.394;2023-11-19T08:26:07;39.03;;;36.53;;
21505;SDS011;10914;48.886;9.394;2023-11-19T08:28:32;32.15;;;30.50;;
21505;SDS011;10914;48.886;9.394;2023-11-19T08:30:59;28.45;;;26.92;;
21505;SDS011;10914;48.886;9.394;2023-11-19T08:33:24;37.85;;;36.00;;
21505;SDS011;10914;48.886;9.394;2023-11-19T08:35:49;36.88;;;35.08;;
21505;SDS011;10914;48.886;9.394;2023-11-19T08:38:15;33.08;;;31.33;;
21505;SDS011;10914;48.886;9.394;2023-11-19T08:40:40;24.23;;;23.13;;
21505;SDS011;10914;48.886;9.394;2023-11-19T08:43:05;36.53;;;33.28;;
21505;SDS011;10914;48.886;9.394;2023-11-19T08:45:31;34.83;;;32.17;;
21505;SDS011;10914;48.886;9.394;2023-11-19T08:47:57;29.08;;;27.15;;
21505;SDS011;10914;48.886;9.394;2023-11-19T08:50:22;26.08;;;24.67;;
21505;SDS011;10914;48.886;9.394;2023-11-19T08:52:47;27.27;;;25.58;;
21505;SDS011;10914;48.886;9.394;2023-11-19T08:55:12;27.77;;;26.03;;
21505;SDS011;10914;48.886;9.394;2023-11-19T08:57:38;32.00;;;30.10;;
21505;SDS011;10914;48.886;9.394;2023-11-19T09:00:04;27.95;;;26.55;;
21505;SDS011;10914;48.886;9.394;2023-11-19T09:02:32;29.70;;;28.38;;
21505;SDS011;10914;48.886;9.394;2023-11-19T09:04:58;34.75;;;33.15;;
21505;SDS011;10914;48.886;9.394;2023-11-19T09:07:23;29.40;;;27.95;;
21505;SDS011;10914;48.886;9.394;2023-11-19T09:09:48;36.40;;;34.80;;
21505;SDS011;10914;48.886;9.394;2023-11-19T09:12:14;38.47;;;36.75;;
21505;SDS011;10914;48.886;9.394;2023-11-19T09:14:39;26.98;;;25.77;;
21505;SDS011;10914;48.886;9.394;2023-11-19T09:17:04;24.25;;;23.15;;
21505;SDS011;10914;48.886;9.394;2023-11-19T09:19:32;25.10;;;23.90;;
21505;SDS011;10914;48.886;9.394;2023-11-19T09:21:57;25.80;;;24.50;;
21505;SDS011;10914;48.886;9.394;2023-11-19T09:24:22;25.50;;;24.08;;
21505;SDS011;10914;48.886;9.394;2023-11-19T09:26:49;27.63;;;26.05;;
21505;SDS011;10914;48.886;9.394;2023-11-19T09:29:14;30.65;;;29.25;;
21505;SDS011;10914;48.886;9.394;2023-11-19T09:31:40;26.73;;;25.50;;
21505;SDS011;10914;48.886;9.394;2023-11-19T09:34:05;24.52;;;23.33;;
21505;SDS011;10914;48.886;9.394;2023-11-19T09:36:30;23.65;;;22.55;;
21505;SDS011;10914;48.886;9.394;2023-11-19T09:38:56;23.77;;;22.67;;
21505;SDS011;10914;48.886;9.394;2023-11-19T09:41:21;23.58;;;22.35;;
21505;SDS011;10914;48.886;9.394;2023-11-19T09:43:47;23.70;;;22.60;;
21505;SDS011;10914;48.886;9.394;2023-11-19T09:46:13;23.65;;;22.55;;
21505;SDS011;10914;48.886;9.394;2023-11-19T09:48:40;23.00;;;21.88;;
21505;SDS011;10914;48.886;9.394;2023-11-19T09:51:06;24.55;;;23.35;;
21505;SDS011;10914;48.886;9.394;2023-11-19T09:53:31;26.23;;;24.85;;
21505;SDS011;10914;48.886;9.394;2023-11-19T09:55:57;24.63;;;23.42;;
21505;SDS011;10914;48.886;9.394;2023-11-19T09:58:24;23.85;;;22.52;;
21505;SDS011;10914;48.886;9.394;2023-11-19T10:00:50;23.60;;;22.30;;
21505;SDS011;10914;48.886;9.394;2023-11-19T10:03:17;22.33;;;21.20;;
21505;SDS011;10914;48.886;9.394;2023-11-19T10:05:42;22.48;;;21.33;;
21505;SDS011;10914;48.886;9.394;2023-11-19T10:08:10;26.48;;;25.27;;
21505;SDS011;10914;48.886;9.394;2023-11-19T10:10:39;23.08;;;21.98;;
21505;SDS011;10914;48.886;9.394;2023-11-19T10:13:04;23.20;;;21.85;;
21505;SDS011;10914;48.886;9.394;2023-11-19T10:15:29;23.10;;;22.00;;
21505;SDS011;10914;48.886;9.394;2023-11-19T10:17:59;22.65;;;21.33;;
21505;SDS011;10914;48.886;9.394;2023-11-19T10:20:25;26.13;;;24.80;;
21505;SDS011;10914;48.886;9.394;2023-11-19T10:22:53;29.45;;;28.13;;
21505;SDS011;10914;48.886;9.394;2023-11-19T10:27:50;29.75;;;28.25;;
21505;SDS011;10914;48.886;9.394;2023-11-19T10:30:22;30.13;;;28.63;;
21505;SDS011;10914;48.886;9.394;2023-11-19T10:35:28;30.23;;;28.35;;
21505;SDS011;10914;48.886;9.394;2023-11-19T10:37:53;29.02;;;27.52;;
21505;SDS011;10914;48.886;9.394;2023-11-19T10:40:18;28.13;;;26.63;;
21505;SDS011;10914;48.886;9.394;2023-11-19T10:42:43;29.38;;;27.95;;
21505;SDS011;10914;48.886;9.394;2023-11-19T10:45:21;30.05;;;28.55;;
21505;SDS011;10914;48.886;9.394;2023-11-19T10:47:47;29.05;;;27.65;;
21505;SDS011;10914;48.886;9.394;2023-11-19T10:50:12;29.38;;;27.90;;
21505;SDS011;10914;48.886;9.394;2023-11-19T10:52:37;30.08;;;28.48;;
21505;SDS011;10914;48.886;9.394;2023-11-19T10:55:04;30.20;;;28.38;;
21505;SDS011;10914;48.886;9.394;2023-11-19T10:57:31;30.83;;;29.23;;
21505;SDS011;10914;48.886;9.394;2023-11-19T11:00:00;29.88;;;28.45;;
21505;SDS011;10914;48.886;9.394;2023-11-19T11:02:26;31.55;;;29.70;;
21505;SDS011;10914;48.886;9.394;2023-11-19T11:04:52;32.60;;;30.90;;
21505;SDS011;10914;48.886;9.394;2023-11-19T11:07:19;33.95;;;32.22;;
21505;SDS011;10914;48.886;9.394;2023-11-19T11:09:46;34.53;;;32.50;;
21505;SDS011;10914;48.886;9.394;2023-11-19T11:12:13;31.52;;;29.85;;
21505;SDS011;10914;48.886;9.394;2023-11-19T11:14:40;28.83;;;27.33;;
21505;SDS011;10914;48.886;9.394;2023-11-19T11:17:07;29.77;;;28.35;;
21505;SDS011;10914;48.886;9.394;2023-11-19T11:19:33;30.00;;;28.40;;
21505;SDS011;10914;48.886;9.394;2023-11-19T11:21:59;27.65;;;26.35;;
21505;SDS011;10914;48.886;9.394;2023-11-19T11:35:16;21.80;;;20.60;;
21505;SDS011;10914;48.886;9.394;2023-11-19T11:37:50;21.25;;;20.25;;
21505;SDS011;10914;48.886;9.394;2023-11-19T11:40:18;21.45;;;20.27;;
21505;SDS011;10914;48.886;9.394;2023-11-19T11:42:44;21.48;;;20.48;;
21505;SDS011;10914;48.886;9.394;2023-11-19T11:45:09;21.15;;;20.15;;
21505;SDS011;10914;48.886;9.394;2023-11-19T11:50:07;20.58;;;19.50;;
21505;SDS011;10914;48.886;9.394;2023-11-19T11:52:32;20.35;;;19.35;;
21505;SDS011;10914;48.886;9.394;2023-11-19T11:55:03;21.77;;;20.67;;
21505;SDS011;10914;48.886;9.394;2023-11-19T11:57:32;20.33;;;19.23;;
21505;SDS011;10914;48.886;9.394;2023-11-19T12:00:01;19.85;;;18.75;;
21505;SDS011;10914;48.886;9.394;2023-11-19T12:02:30;19.65;;;18.65;;
21505;SDS011;10914;48.886;9.394;2023-11-19T12:04:58;20.00;;;19.10;;
21505;SDS011;10914;48.886;9.394;2023-11-19T12:07:28;20.42;;;19.42;;
21505;SDS011;10914;48.886;9.394;2023-11-19T12:10:05;21.45;;;20.17;;
21505;SDS011;10914;48.886;9.394;2023-11-19T12:12:32;21.38;;;20.23;;
21505;SDS011;10914;48.886;9.394;2023-11-19T12:20:01;21.90;;;20.63;;
21505;SDS011;10914;48.886;9.394;2023-11-19T12:22:26;21.55;;;20.40;;
21505;SDS011;10914;48.886;9.394;2023-11-19T12:24:54;20.85;;;19.75;;
21505;SDS011;10914;48.886;9.394;2023-11-19T12:27:20;20.40;;;19.40;;
21505;SDS011;10914;48.886;9.394;2023-11-19T12:29:49;20.77;;;19.77;;
21505;SDS011;10914;48.886;9.394;2023-11-19T12:32:15;20.92;;;19.83;;
21505;SDS011;10914;48.886;9.394;2023-11-19T12:34:40;20.90;;;19.80;;
21505;SDS011;10914;48.886;9.394;2023-11-19T12:37:05;20.92;;;19.83;;
21505;SDS011;10914;48.886;9.394;2023-11-19T12:39:31;22.10;;;20.83;;
21505;SDS011;10914;48.886;9.394;2023-11-19T12:41:56;21.98;;;20.80;;
21505;SDS011;10914;48.886;9.394;2023-11-19T12:44:24;22.58;;;21.38;;
21505;SDS011;10914;48.886;9.394;2023-11-19T12:47:00;21.48;;;20.42;;
21505;SDS011;10914;48.886;9.394;2023-11-19T12:49:26;21.63;;;20.35;;
21505;SDS011;10914;48.886;9.394;2023-11-19T12:51:51;21.08;;;19.90;;
21505;SDS011;10914;48.886;9.394;2023-11-19T12:54:16;20.95;;;19.95;;
21505;SDS011;10914;48.886;9.394;2023-11-19T12:56:51;21.25;;;20.25;;
21505;SDS011;10914;48.886;9.394;2023-11-19T12:59:17;20.85;;;19.90;;
21505;SDS011;10914;48.886;9.394;2023-11-19T13:01:53;20.25;;;19.25;;
21505;SDS011;10914;48.886;9.394;2023-11-19T13:04:18;20.70;;;19.70;;
21505;SDS011;10914;48.886;9.394;2023-11-19T13:06:44;20.25;;;19.35;;
21505;SDS011;10914;48.886;9.394;2023-11-19T13:09:12;21.30;;;20.30;;
21505;SDS011;10914;48.886;9.394;2023-11-19T13:11:46;21.35;;;20.25;;
21505;SDS011;10914;48.886;9.394;2023-11-19T13:14:11;20.70;;;19.60;;
21505;SDS011;10914;48.886;9.394;2023-11-19T13:16:37;21.88;;;20.73;;
21505;SDS011;10914;48.886;9.394;2023-11-19T13:19:02;21.00;;;20.00;;
21505;SDS011;10914;48.886;9.394;2023-11-19T13:21:28;20.52;;;19.38;;
21505;SDS011;10914;48.886;9.394;2023-11-19T13:23:54;22.15;;;21.00;;
21505;SDS011;10914;48.886;9.394;2023-11-19T13:26:19;20.92;;;19.73;;
21505;SDS011;10914;48.886;9.394;2023-11-19T13:28:45;20.98;;;20.02;;
21505;SDS011;10914;48.886;9.394;2023-11-19T13:31:11;20.73;;;19.70;;
21505;SDS011;10914;48.886;9.394;2023-11-19T13:33:36;21.00;;;20.00;;
21505;SDS011;10914;48.886;9.394;2023-11-19T13:36:02;21.17;;;20.17;;
21505;SDS011;10914;48.886;9.394;2023-11-19T13:38:31;20.90;;;19.80;;
21505;SDS011;10914;48.886;9.394;2023-11-19T13:40:56;20.90;;;19.70;;
21505;SDS011;10914;48.886;9.394;2023-11-19T13:43:21;21.10;;;20.10;;
21505;SDS011;10914;48.886;9.394;2023-11-19T13:45:47;21.92;;;20.83;;
21505;SDS011;10914;48.886;9.394;2023-11-19T13:48:12;22.43;;;20.90;;
21505;SDS011;10914;48.886;9.394;2023-11-19T13:50:37;22.35;;;21.15;;
21505;SDS011;10914;48.886;9.394;2023-11-19T13:53:02;21.20;;;20.10;;
21505;SDS011;10914;48.886;9.394;2023-11-19T13:55:29;21.52;;;20.35;;
21505;SDS011;10914;48.886;9.394;2023-11-19T13:57:55;21.65;;;20.50;;
21505;SDS011;10914;48.886;9.394;2023-11-19T14:00:20;22.95;;;21.75;;
21505;SDS011;10914;48.886;9.394;2023-11-19T14:02:48;23.27;;;22.08;;
21505;SDS011;10914;48.886;9.394;2023-11-19T14:05:13;25.00;;;23.60;;
21505;SDS011;10914;48.886;9.394;2023-11-19T14:07:40;24.85;;;23.65;;
21505;SDS011;10914;48.886;9.394;2023-11-19T14:10:05;24.50;;;23.25;;
21505;SDS011;10914;48.886;9.394;2023-11-19T14:12:32;23.10;;;21.88;;
21505;SDS011;10914;48.886;9.394;2023-11-19T14:14:57;21.30;;;20.20;;
21505;SDS011;10914;48.886;9.394;2023-11-19T14:17:23;21.05;;;19.95;;
21505;SDS011;10914;48.886;9.394;2023-11-19T14:19:50;21.73;;;20.73;;
21505;SDS011;10914;48.886;9.394;2023-11-19T14:22:15;21.48;;;20.42;;
21505;SDS011;10914;48.886;9.394;2023-11-19T14:24:40;20.92;;;19.88;;
21505;SDS011;10914;48.886;9.394;2023-11-19T14:27:07;22.02;;;20.67;;
21505;SDS011;10914;48.886;9.394;2023-11-19T14:29:33;21.25;;;20.25;;
21505;SDS011;10914;48.886;9.394;2023-11-19T14:31:59;22.45;;;21.05;;
21505;SDS011;10914;48.886;9.394;2023-11-19T14:34:25;23.15;;;21.95;;
21505;SDS011;10914;48.886;9.394;2023-11-19T14:36:51;22.27;;;21.08;;
21505;SDS011;10914;48.886;9.394;2023-11-19T14:39:16;23.10;;;22.00;;